createdAt,value
2018-03-20T00:01:59.287Z,-5.00
2018-03-20T00:04:25.385Z,-5.10
2018-03-20T00:06:51.394Z,-5.10
2018-03-20T00:09:17.349Z,-5.20
2018-03-20T00:11:43.410Z,-5.20
2018-03-20T00:14:09.374Z,-5.20
2018-03-20T00:16:35.502Z,-5.30
2018-03-20T00:19:01.464Z,-5.30
2018-03-20T00:21:27.452Z,-5.40
2018-03-20T00:23:54.193Z,-5.50
2018-03-20T00:26:20.265Z,-5.50
2018-03-20T00:28:46.304Z,-5.50
2018-03-20T00:31:12.330Z,-5.50
2018-03-20T00:33:38.289Z,-5.50
2018-03-20T00:36:04.242Z,-5.50
2018-03-20T00:38:31.046Z,-5.50
2018-03-20T00:40:57.789Z,-5.40
2018-03-20T00:43:24.621Z,-5.40
2018-03-20T00:45:50.584Z,-5.40
2018-03-20T00:48:17.324Z,-5.40
2018-03-20T00:50:43.368Z,-5.40
2018-03-20T00:53:10.100Z,-5.60
2018-03-20T00:55:36.068Z,-5.60
2018-03-20T00:58:02.803Z,-5.60
2018-03-20T01:00:28.796Z,-5.60
2018-03-20T01:02:54.831Z,-5.60
2018-03-20T01:05:20.912Z,-5.60
2018-03-20T01:07:46.984Z,-5.70
2018-03-20T01:10:13.701Z,-5.70
2018-03-20T01:12:39.676Z,-5.70
2018-03-20T01:15:05.687Z,-5.70
2018-03-20T01:17:31.695Z,-5.80
2018-03-20T01:19:58.619Z,-5.80
2018-03-20T01:22:24.712Z,-5.80
2018-03-20T01:24:51.441Z,-5.90
2018-03-20T01:27:17.459Z,-5.90
2018-03-20T01:29:43.459Z,-6.00
2018-03-20T01:32:10.181Z,-6.10
2018-03-20T01:34:36.185Z,-6.10
2018-03-20T01:37:02.147Z,-6.20
2018-03-20T01:39:28.176Z,-6.20
2018-03-20T01:41:54.175Z,-6.20
2018-03-20T01:44:20.126Z,-6.20
2018-03-20T01:46:46.162Z,-6.20
2018-03-20T01:49:18.955Z,-6.20
2018-03-20T01:51:45.009Z,-6.30
2018-03-20T01:54:11.010Z,-6.30
2018-03-20T01:56:37.691Z,-6.30
2018-03-20T01:59:03.673Z,-6.30
2018-03-20T02:01:29.707Z,-6.20
2018-03-20T02:03:56.505Z,-6.20
2018-03-20T02:06:22.470Z,-6.20
2018-03-20T02:08:48.443Z,-6.20
2018-03-20T02:11:21.329Z,-6.30
2018-03-20T02:13:48.784Z,-6.40
2018-03-20T02:16:14.732Z,-6.40
2018-03-20T02:18:40.684Z,-6.40
2018-03-20T02:21:06.652Z,-6.50
2018-03-20T02:23:32.644Z,-6.40
2018-03-20T02:25:58.708Z,-6.50
2018-03-20T02:28:24.728Z,-6.40
2018-03-20T02:30:51.465Z,-6.40
2018-03-20T02:33:17.486Z,-6.50
2018-03-20T02:35:43.453Z,-6.40
2018-03-20T02:38:09.439Z,-6.50
2018-03-20T02:40:35.423Z,-6.40
2018-03-20T02:43:01.437Z,-6.50
2018-03-20T02:45:27.461Z,-6.50
2018-03-20T02:47:53.420Z,-6.50
2018-03-20T02:50:19.464Z,-6.50
2018-03-20T02:52:45.456Z,-6.60
2018-03-20T02:55:11.489Z,-6.60
2018-03-20T02:57:37.460Z,-6.50
2018-03-20T03:00:03.461Z,-6.60
2018-03-20T03:02:29.464Z,-6.60
2018-03-20T03:04:56.304Z,-6.80
2018-03-20T03:07:22.269Z,-6.80
2018-03-20T03:09:48.984Z,-6.80
2018-03-20T03:12:15.023Z,-6.80
2018-03-20T03:14:41.004Z,-6.80
2018-03-20T03:17:06.976Z,-6.90
2018-03-20T03:19:32.978Z,-6.90
2018-03-20T03:21:58.980Z,-6.90
2018-03-20T03:24:25.018Z,-6.90
2018-03-20T03:26:51.011Z,-6.90
2018-03-20T03:29:16.976Z,-6.90
2018-03-20T03:31:42.964Z,-6.90
2018-03-20T03:34:08.936Z,-7.00
2018-03-20T03:36:34.932Z,-7.00
2018-03-20T03:39:00.997Z,-7.00
2018-03-20T03:41:27.034Z,-7.00
2018-03-20T03:43:53.020Z,-7.10
2018-03-20T03:46:19.728Z,-7.10
2018-03-20T03:48:45.713Z,-7.10
2018-03-20T03:51:12.417Z,-7.10
2018-03-20T03:53:38.412Z,-7.10
2018-03-20T03:56:05.118Z,-7.10
2018-03-20T03:58:31.068Z,-7.20
2018-03-20T04:00:57.084Z,-7.10
2018-03-20T04:03:23.057Z,-7.00
2018-03-20T04:05:49.811Z,-7.20
2018-03-20T04:08:16.565Z,-7.20
2018-03-20T04:10:43.289Z,-7.20
2018-03-20T04:13:09.275Z,-7.20
2018-03-20T04:15:35.276Z,-7.20
2018-03-20T04:18:01.989Z,-7.10
2018-03-20T04:20:28.068Z,-7.10
2018-03-20T04:22:54.082Z,-7.20
2018-03-20T04:25:21.564Z,-7.20
2018-03-20T04:27:47.552Z,-7.20
2018-03-20T04:30:13.548Z,-7.20
2018-03-20T04:32:40.250Z,-7.20
2018-03-20T04:35:06.221Z,-7.20
2018-03-20T04:37:32.221Z,-7.20
2018-03-20T04:39:58.258Z,-7.10
2018-03-20T04:42:24.282Z,-7.20
2018-03-20T04:44:50.248Z,-7.20
2018-03-20T04:47:16.229Z,-7.30
2018-03-20T04:49:42.937Z,-7.30
2018-03-20T04:52:08.920Z,-7.40
2018-03-20T04:54:35.668Z,-7.30
2018-03-20T04:57:01.639Z,-7.30
2018-03-20T04:59:27.709Z,-7.40
2018-03-20T05:01:53.662Z,-7.40
2018-03-20T05:04:19.652Z,-7.50
2018-03-20T05:06:45.635Z,-7.40
2018-03-20T05:09:11.629Z,-7.40
2018-03-20T05:11:37.588Z,-7.40
2018-03-20T05:14:03.577Z,-7.40
2018-03-20T05:16:30.347Z,-7.40
2018-03-20T05:19:01.336Z,-7.50
2018-03-20T05:21:29.359Z,-7.50
2018-03-20T05:23:59.231Z,-7.50
2018-03-20T05:26:25.244Z,-7.50
2018-03-20T05:28:51.228Z,-7.40
2018-03-20T05:31:17.244Z,-7.40
2018-03-20T05:33:43.216Z,-7.40
2018-03-20T05:36:09.217Z,-7.50
2018-03-20T05:38:35.180Z,-7.40
2018-03-20T05:41:01.184Z,-7.40
2018-03-20T05:43:27.194Z,-7.40
2018-03-20T05:45:53.188Z,-7.40
2018-03-20T05:51:16.608Z,-7.40
2018-03-20T05:53:42.571Z,-7.40
2018-03-20T05:56:08.582Z,-7.30
2018-03-20T05:58:34.548Z,-7.30
2018-03-20T06:01:00.598Z,-7.30
2018-03-20T06:03:26.727Z,-7.20
2018-03-20T06:05:52.684Z,-7.20
2018-03-20T06:08:18.676Z,-7.10
2018-03-20T06:10:45.377Z,-7.00
2018-03-20T06:13:11.404Z,-7.00
2018-03-20T06:15:37.392Z,-6.90
2018-03-20T06:18:03.347Z,-6.80
2018-03-20T06:20:30.128Z,-6.70
2018-03-20T06:22:56.174Z,-6.80
2018-03-20T06:25:22.172Z,-6.70
2018-03-20T06:27:48.912Z,-6.60
2018-03-20T06:30:14.936Z,-6.60
2018-03-20T06:32:40.892Z,-6.50
2018-03-20T06:35:07.618Z,-6.30
2018-03-20T06:37:33.593Z,-6.30
2018-03-20T06:40:00.431Z,-6.10
2018-03-20T06:42:26.472Z,-6.10
2018-03-20T06:44:53.196Z,-5.90
2018-03-20T06:47:19.192Z,-5.90
2018-03-20T06:49:45.188Z,-5.80
2018-03-20T06:52:11.156Z,-5.80
2018-03-20T06:54:37.149Z,-5.70
2018-03-20T06:57:03.109Z,-5.60
2018-03-20T06:59:29.932Z,-5.30
2018-03-20T07:01:55.996Z,-5.40
2018-03-20T07:04:22.736Z,-5.10
2018-03-20T07:06:48.713Z,-5.10
2018-03-20T07:09:14.704Z,-5.00
2018-03-20T07:11:40.692Z,-4.90
2018-03-20T07:14:06.632Z,-4.80
2018-03-20T07:16:32.618Z,-4.70
2018-03-20T07:18:58.614Z,-4.60
2018-03-20T07:21:24.664Z,-4.50
2018-03-20T07:23:50.657Z,-4.40
2018-03-20T07:26:16.624Z,-4.20
2018-03-20T07:28:42.680Z,-4.20
2018-03-20T07:31:09.386Z,-3.90
2018-03-20T07:33:35.417Z,-3.90
2018-03-20T07:36:01.381Z,-3.80
2018-03-20T07:38:27.526Z,-3.70
2018-03-20T07:40:53.488Z,-3.50
2018-03-20T07:43:19.456Z,-3.30
2018-03-20T07:45:46.192Z,-3.00
2018-03-20T07:48:12.145Z,-3.00
2018-03-20T07:50:38.960Z,-2.60
2018-03-20T07:53:04.917Z,-2.60
2018-03-20T07:55:30.889Z,-2.40
2018-03-20T07:57:57.645Z,-2.10
2018-03-20T08:00:23.632Z,-2.10
2018-03-20T08:02:49.613Z,-2.00
2018-03-20T08:05:15.620Z,-1.80
2018-03-20T08:07:41.564Z,-1.80
2018-03-20T08:10:08.293Z,-1.50
2018-03-20T08:12:34.249Z,-1.60
2018-03-20T08:15:01.064Z,-1.30
2018-03-20T08:17:27.190Z,-1.30
2018-03-20T08:19:53.172Z,-1.10
2018-03-20T08:22:19.169Z,-0.90
2018-03-20T08:24:45.153Z,-0.70
2018-03-20T08:27:11.841Z,-0.50
2018-03-20T08:29:37.879Z,-0.50
2018-03-20T08:32:03.876Z,-0.30
2018-03-20T08:34:30.584Z,0.00
2018-03-20T08:36:56.595Z,0.00
2018-03-20T08:39:22.588Z,0.10
2018-03-20T08:41:48.535Z,0.30
2018-03-20T08:44:15.265Z,0.50
2018-03-20T08:46:41.234Z,0.50
2018-03-20T08:49:07.976Z,0.70
2018-03-20T08:51:34.105Z,0.70
2018-03-20T08:54:00.216Z,0.80
2018-03-20T08:56:26.260Z,0.80
2018-03-20T08:58:52.250Z,0.90
2018-03-20T09:01:18.248Z,0.70
2018-03-20T09:03:44.273Z,0.70
2018-03-20T09:06:10.277Z,0.80
2018-03-20T09:08:36.298Z,0.90
2018-03-20T09:11:02.429Z,0.90
2018-03-20T09:13:29.344Z,0.80
2018-03-20T09:15:55.399Z,0.80
2018-03-20T09:18:22.136Z,0.70
2018-03-20T09:20:48.142Z,0.60
2018-03-20T09:23:14.096Z,0.90
2018-03-20T09:25:40.087Z,1.10
2018-03-20T09:28:06.776Z,1.20
2018-03-20T09:30:32.760Z,1.10
2018-03-20T09:32:58.828Z,1.30
2018-03-20T09:35:24.900Z,1.50
2018-03-20T09:37:50.887Z,1.60
2018-03-20T09:40:16.853Z,1.70
2018-03-20T09:42:42.843Z,1.70
2018-03-20T09:45:09.529Z,1.80
2018-03-20T09:47:35.529Z,1.70
2018-03-20T09:50:01.476Z,1.80
2018-03-20T09:52:28.260Z,1.90
2018-03-20T09:54:55.048Z,1.90
2018-03-20T09:57:20.996Z,1.90
2018-03-20T09:59:46.980Z,2.00
2018-03-20T10:02:12.993Z,2.30
2018-03-20T10:04:39.777Z,2.50
2018-03-20T10:07:05.769Z,2.50
2018-03-20T10:09:31.720Z,2.60
2018-03-20T10:11:58.500Z,2.40
2018-03-20T10:14:24.482Z,2.40
2018-03-20T10:16:50.433Z,2.60
2018-03-20T10:19:16.417Z,2.70
2018-03-20T10:21:42.404Z,2.80
2018-03-20T10:24:09.124Z,2.90
2018-03-20T10:26:35.081Z,2.90
2018-03-20T10:29:01.227Z,2.90
2018-03-20T10:31:27.250Z,3.10
2018-03-20T10:33:53.206Z,3.20
2018-03-20T10:36:19.945Z,4.00
2018-03-20T10:38:45.916Z,4.00
2018-03-20T10:41:11.892Z,4.30
2018-03-20T10:43:37.838Z,4.10
2018-03-20T10:46:03.836Z,3.60
2018-03-20T10:48:29.894Z,3.50
2018-03-20T10:50:55.936Z,3.80
2018-03-20T10:53:21.931Z,4.40
2018-03-20T10:55:48.680Z,3.70
2018-03-20T10:58:15.380Z,3.70
2018-03-20T11:00:47.309Z,3.60
2018-03-20T11:03:14.064Z,3.30
2018-03-20T11:05:40.759Z,3.20
2018-03-20T11:08:06.722Z,3.20
2018-03-20T11:10:32.716Z,3.40
2018-03-20T11:12:58.696Z,3.40
2018-03-20T11:15:24.701Z,3.30
2018-03-20T11:17:50.652Z,3.70
2018-03-20T11:20:16.652Z,3.90
2018-03-20T11:22:42.645Z,4.00
2018-03-20T11:25:09.342Z,4.60
2018-03-20T11:27:35.296Z,4.60
2018-03-20T11:30:01.349Z,4.40
2018-03-20T11:32:27.358Z,4.60
2018-03-20T11:34:53.392Z,4.40
2018-03-20T11:37:19.368Z,4.30
2018-03-20T11:39:45.350Z,3.80
2018-03-20T11:42:11.351Z,4.00
2018-03-20T11:44:37.344Z,4.10
2018-03-20T11:47:03.293Z,4.10
2018-03-20T11:49:29.351Z,4.20
2018-03-20T11:51:55.340Z,4.40
2018-03-20T11:54:21.332Z,4.50
2018-03-20T11:56:47.351Z,4.00
2018-03-20T11:59:13.310Z,3.70
2018-03-20T12:01:39.272Z,3.80
2018-03-20T12:04:05.264Z,3.90
2018-03-20T12:06:31.306Z,4.00
2018-03-20T12:09:09.828Z,3.60
2018-03-20T12:11:35.785Z,3.50
2018-03-20T12:14:01.816Z,3.60
2018-03-20T12:16:27.998Z,3.20
2018-03-20T12:18:53.991Z,3.30
2018-03-20T12:21:19.977Z,3.10
2018-03-20T12:23:45.968Z,3.10
2018-03-20T12:26:11.956Z,3.30
2018-03-20T12:28:37.930Z,3.70
2018-03-20T12:31:03.924Z,3.80
2018-03-20T12:33:30.001Z,3.40
2018-03-20T12:35:56.030Z,3.40
2018-03-20T12:38:22.032Z,4.10
2018-03-20T12:40:47.985Z,3.60
2018-03-20T12:43:14.001Z,3.20
2018-03-20T12:45:39.969Z,3.20
2018-03-20T12:48:05.944Z,3.00
2018-03-20T12:50:32.668Z,3.20
2018-03-20T12:52:58.658Z,3.20
2018-03-20T12:55:24.703Z,3.00
2018-03-20T12:57:50.680Z,3.20
2018-03-20T13:00:16.663Z,3.10
2018-03-20T13:02:42.612Z,3.10
2018-03-20T13:05:08.611Z,2.90
2018-03-20T13:07:35.296Z,3.20
2018-03-20T13:10:01.333Z,3.20
2018-03-20T13:12:27.380Z,3.30
2018-03-20T13:14:53.400Z,3.50
2018-03-20T13:17:19.364Z,3.60
2018-03-20T13:19:45.321Z,3.20
2018-03-20T13:22:11.304Z,3.40
2018-03-20T13:24:37.272Z,3.60
2018-03-20T13:27:03.249Z,3.70
2018-03-20T13:29:29.300Z,3.30
2018-03-20T13:31:55.309Z,3.70
2018-03-20T13:34:21.308Z,3.50
2018-03-20T13:36:47.264Z,3.30
2018-03-20T13:39:13.264Z,3.20
2018-03-20T13:41:39.228Z,3.00
2018-03-20T13:44:05.240Z,3.20
2018-03-20T13:46:31.416Z,3.30
2018-03-20T13:48:57.413Z,4.20
2018-03-20T13:51:23.429Z,3.70
2018-03-20T13:53:50.116Z,3.20
2018-03-20T13:56:16.084Z,3.10
2018-03-20T13:58:42.249Z,3.00
2018-03-20T14:01:08.184Z,2.80
2018-03-20T14:03:34.880Z,2.70
2018-03-20T14:06:00.901Z,2.70
2018-03-20T14:08:26.948Z,2.70
2018-03-20T14:10:53.740Z,2.60
2018-03-20T14:13:19.700Z,2.60
2018-03-20T14:15:46.433Z,2.10
2018-03-20T14:18:12.392Z,2.10
2018-03-20T14:20:39.186Z,1.90
2018-03-20T14:23:05.089Z,1.90
2018-03-20T14:25:31.781Z,2.00
2018-03-20T14:27:57.815Z,2.00
2018-03-20T14:30:23.804Z,2.20
2018-03-20T14:32:50.544Z,1.60
2018-03-20T14:35:16.501Z,1.50
2018-03-20T14:37:43.189Z,1.70
2018-03-20T14:40:09.164Z,1.70
2018-03-20T14:42:35.117Z,1.70
2018-03-20T14:45:01.856Z,1.40
2018-03-20T14:47:27.886Z,1.40
2018-03-20T14:49:54.676Z,1.10
2018-03-20T14:52:20.696Z,1.10
2018-03-20T14:54:47.380Z,1.20
2018-03-20T14:57:13.368Z,1.20
2018-03-20T14:59:39.400Z,1.40
2018-03-20T15:02:05.352Z,1.50
2018-03-20T15:04:32.058Z,1.60
2018-03-20T15:06:58.068Z,1.60
2018-03-20T15:09:24.032Z,1.40
2018-03-20T15:11:50.012Z,1.60
2018-03-20T15:14:15.967Z,1.80
2018-03-20T15:16:41.929Z,1.80
2018-03-20T15:19:07.925Z,1.60
2018-03-20T15:21:34.652Z,1.70
2018-03-20T15:24:00.653Z,1.60
2018-03-20T15:26:26.652Z,1.60
2018-03-20T15:28:53.356Z,1.70
2018-03-20T15:31:19.350Z,1.70
2018-03-20T15:33:46.040Z,1.70
2018-03-20T15:36:12.006Z,1.70
2018-03-20T15:38:37.989Z,1.70
2018-03-20T15:41:03.995Z,1.50
2018-03-20T15:43:30.689Z,1.10
2018-03-20T15:45:56.683Z,1.10
2018-03-20T15:48:23.381Z,0.90
2018-03-20T15:50:49.364Z,0.90
2018-03-20T15:53:15.325Z,1.20
2018-03-20T15:55:42.049Z,1.40
2018-03-20T15:58:08.009Z,1.40
2018-03-20T16:00:34.744Z,1.20
2018-03-20T16:03:00.806Z,1.20
2018-03-20T16:05:27.612Z,1.30
2018-03-20T16:07:53.615Z,1.30
2018-03-20T16:10:19.612Z,1.30
2018-03-20T16:12:45.560Z,1.30
2018-03-20T16:15:12.257Z,1.10
2018-03-20T16:17:38.301Z,1.10
2018-03-20T16:20:04.291Z,1.20
2018-03-20T16:22:31.049Z,1.30
2018-03-20T16:24:57.849Z,1.20
2018-03-20T16:27:23.828Z,1.20
2018-03-20T16:29:50.552Z,1.20
2018-03-20T16:32:16.496Z,1.20
2018-03-20T16:34:42.557Z,1.20
2018-03-20T16:37:09.192Z,0.90
2018-03-20T16:39:35.173Z,0.90
2018-03-20T16:42:01.118Z,1.00
2018-03-20T16:44:27.137Z,1.00
2018-03-20T16:46:53.203Z,1.20
2018-03-20T16:49:19.164Z,1.20
2018-03-20T16:51:45.138Z,1.20
2018-03-20T16:54:11.136Z,1.00
2018-03-20T16:56:37.087Z,0.90
2018-03-20T16:59:03.062Z,0.80
2018-03-20T17:01:29.057Z,1.10
2018-03-20T17:03:55.788Z,1.10
2018-03-20T17:06:21.768Z,1.10
2018-03-20T17:08:47.714Z,1.20
2018-03-20T17:11:13.661Z,1.40
2018-03-20T17:13:39.673Z,1.40
2018-03-20T17:16:06.356Z,1.10
2018-03-20T17:18:32.307Z,1.10
2018-03-20T17:20:58.352Z,0.90
2018-03-20T17:23:24.305Z,0.80
2018-03-20T17:25:50.296Z,0.70
2018-03-20T17:28:16.308Z,0.70
2018-03-20T17:30:42.316Z,0.80
2018-03-20T17:33:08.317Z,0.70
2018-03-20T17:35:36.136Z,0.70
2018-03-20T17:38:02.112Z,0.70
2018-03-20T17:40:28.087Z,0.80
2018-03-20T17:42:54.073Z,1.00
2018-03-20T17:45:20.020Z,0.80
2018-03-20T17:47:46.049Z,0.80
2018-03-20T17:50:11.998Z,0.70
2018-03-20T17:52:37.961Z,0.60
2018-03-20T17:55:04.012Z,0.50
2018-03-20T17:57:30.067Z,0.70
2018-03-20T17:59:56.840Z,0.40
2018-03-20T18:02:22.818Z,0.40
2018-03-20T18:04:48.801Z,0.60
2018-03-20T18:07:15.528Z,0.60
2018-03-20T18:09:41.480Z,0.60
2018-03-20T18:12:08.226Z,0.80
2018-03-20T18:14:34.172Z,0.80
2018-03-20T18:17:00.160Z,0.70
2018-03-20T18:19:26.197Z,0.60
2018-03-20T18:21:52.177Z,0.60
2018-03-20T18:24:18.867Z,0.50
2018-03-20T18:26:44.848Z,0.40
2018-03-20T18:29:10.802Z,0.50
2018-03-20T18:31:36.781Z,0.70
2018-03-20T18:34:02.756Z,0.80
2018-03-20T18:36:28.776Z,1.00
2018-03-20T18:38:54.796Z,0.90
2018-03-20T18:41:20.770Z,0.90
2018-03-20T18:43:46.748Z,0.90
2018-03-20T18:46:12.705Z,0.70
2018-03-20T18:48:38.698Z,0.80
2018-03-20T18:51:05.441Z,0.70
2018-03-20T18:53:31.477Z,0.70
2018-03-20T18:55:58.204Z,0.70
2018-03-20T18:58:24.185Z,0.70
2018-03-20T19:00:50.188Z,0.70
2018-03-20T19:03:16.200Z,0.90
2018-03-20T19:05:42.164Z,0.90
2018-03-20T19:08:08.144Z,0.90
2018-03-20T19:10:34.124Z,1.00
2018-03-20T19:13:00.170Z,1.00
2018-03-20T19:15:26.221Z,0.90
2018-03-20T19:17:52.903Z,0.70
2018-03-20T19:20:18.950Z,0.70
2018-03-20T19:22:45.600Z,1.10
2018-03-20T19:25:11.593Z,1.20
2018-03-20T19:27:37.592Z,0.90
2018-03-20T19:30:03.591Z,0.80
2018-03-20T19:32:29.596Z,0.80
2018-03-20T19:34:55.620Z,0.80
2018-03-20T19:37:21.604Z,0.90
2018-03-20T19:39:47.604Z,0.80
2018-03-20T19:42:13.552Z,1.00
2018-03-20T19:44:40.249Z,1.00
2018-03-20T19:47:06.233Z,1.00
2018-03-20T19:49:32.228Z,1.00
2018-03-20T19:51:58.357Z,0.80
2018-03-20T19:54:24.301Z,0.70
2018-03-20T19:56:50.296Z,0.70
2018-03-20T19:59:17.013Z,0.80
2018-03-20T20:01:42.963Z,0.80
2018-03-20T20:04:08.999Z,0.70
2018-03-20T20:06:34.948Z,0.80
2018-03-20T20:09:01.742Z,0.80
2018-03-20T20:11:27.795Z,0.80
2018-03-20T20:13:53.745Z,0.70
2018-03-20T20:16:20.465Z,0.70
2018-03-20T20:18:46.412Z,0.70
2018-03-20T20:21:12.405Z,0.90
2018-03-20T20:23:39.094Z,0.80
2018-03-20T20:26:05.081Z,0.80
2018-03-20T20:28:31.158Z,0.90
2018-03-20T20:30:57.236Z,1.00
2018-03-20T20:33:23.188Z,1.10
2018-03-20T20:35:49.140Z,1.00
2018-03-20T20:38:15.887Z,0.70
2018-03-20T20:40:41.844Z,0.70
2018-03-20T20:43:08.528Z,1.10
2018-03-20T20:45:34.513Z,1.10
2018-03-20T20:48:00.544Z,1.20
2018-03-20T20:50:26.630Z,1.00
2018-03-20T20:52:52.580Z,0.90
2018-03-20T20:55:18.573Z,0.80
2018-03-20T20:57:45.260Z,0.70
2018-03-20T21:00:11.204Z,0.70
2018-03-20T21:02:37.217Z,0.90
2018-03-20T21:05:03.168Z,0.90
2018-03-20T21:07:29.236Z,1.10
2018-03-20T21:09:55.257Z,1.00
2018-03-20T21:12:22.017Z,1.00
2018-03-20T21:14:48.024Z,1.00
2018-03-20T21:17:14.012Z,0.80
2018-03-20T21:19:39.949Z,0.90
2018-03-20T21:22:05.924Z,0.70
2018-03-20T21:24:31.988Z,0.70
2018-03-20T21:26:58.060Z,0.80
2018-03-20T21:29:24.799Z,0.70
2018-03-20T21:31:50.802Z,0.70
2018-03-20T21:34:16.792Z,0.60
2018-03-20T21:36:42.747Z,0.50
2018-03-20T21:39:08.756Z,0.60
2018-03-20T21:41:34.708Z,0.60
2018-03-20T21:44:01.493Z,0.60
2018-03-20T21:46:27.538Z,0.50
2018-03-20T21:48:53.493Z,0.60
2018-03-20T21:51:19.473Z,0.60
2018-03-20T21:53:46.169Z,0.50
2018-03-20T21:56:12.154Z,0.50
2018-03-20T21:58:38.877Z,0.30
2018-03-20T22:01:04.860Z,0.30
2018-03-20T22:03:30.920Z,0.20
2018-03-20T22:05:56.940Z,0.20
2018-03-20T22:08:22.944Z,0.40
2018-03-20T22:10:48.932Z,0.40
2018-03-20T22:13:14.901Z,0.30
2018-03-20T22:15:40.884Z,0.20
2018-03-20T22:18:06.836Z,0.20
2018-03-20T22:20:32.821Z,0.10
2018-03-20T22:22:58.813Z,0.10
2018-03-20T22:25:24.789Z,0.20
2018-03-20T22:27:50.769Z,0.20
2018-03-20T22:30:16.770Z,0.10
2018-03-20T22:32:43.515Z,-0.10
2018-03-20T22:35:09.500Z,-0.10
2018-03-20T22:37:35.472Z,-0.10
2018-03-20T22:40:01.457Z,0.00
2018-03-20T22:42:27.497Z,-0.10
2018-03-20T22:44:53.452Z,-0.20
2018-03-20T22:47:19.405Z,-0.20
2018-03-20T22:49:45.472Z,-0.20
2018-03-20T22:52:11.424Z,-0.30
2018-03-20T22:54:38.132Z,-0.40
2018-03-20T22:57:04.153Z,-0.40
2018-03-20T22:59:30.150Z,-0.40
2018-03-20T23:01:56.916Z,-0.60
2018-03-20T23:04:22.896Z,-0.70
2018-03-20T23:06:48.880Z,-0.70
2018-03-20T23:09:15.576Z,-0.70
2018-03-20T23:11:41.582Z,-0.70
2018-03-20T23:14:07.585Z,-0.80
2018-03-20T23:16:34.289Z,-0.90
2018-03-20T23:19:00.315Z,-0.90
2018-03-20T23:21:26.415Z,-1.00
2018-03-20T23:23:53.215Z,-1.00
2018-03-20T23:26:19.200Z,-1.10
2018-03-20T23:28:45.153Z,-1.00
2018-03-20T23:31:11.902Z,-1.20
2018-03-20T23:33:38.645Z,-1.30
2018-03-20T23:36:04.588Z,-1.30
2018-03-20T23:38:30.647Z,-1.30
2018-03-20T23:40:56.677Z,-1.30
2018-03-20T23:43:23.371Z,-1.50
2018-03-20T23:45:49.357Z,-1.50
2018-03-20T23:48:16.100Z,-1.40
2018-03-20T23:50:42.056Z,-1.50
2018-03-20T23:53:08.757Z,-1.40
2018-03-20T23:55:34.733Z,-1.50
2018-03-20T23:58:01.480Z,-1.40
